createdAt,value
2019-02-22T00:00:30.419Z,57.70
2019-02-22T00:01:10.180Z,53.60
2019-02-22T00:02:09.402Z,58.40
2019-02-22T00:03:09.366Z,56.60
2019-02-22T00:04:30.420Z,54.90
2019-02-22T00:05:30.386Z,57.60
2019-02-22T00:06:09.381Z,52.70
2019-02-22T00:07:09.374Z,52.40
2019-02-22T00:08:09.374Z,51.30
2019-02-22T00:09:30.369Z,52.80
2019-02-22T00:10:30.553Z,51.90
2019-02-22T00:11:09.381Z,53.40
2019-02-22T00:12:09.351Z,55.00
2019-02-22T00:13:09.340Z,50.60
2019-02-22T00:14:30.366Z,47.80
2019-02-22T00:15:30.332Z,52.00
2019-02-22T00:16:09.320Z,57.50
2019-02-22T00:17:09.327Z,50.30
2019-02-22T00:18:09.316Z,51.10
2019-02-22T00:19:30.353Z,53.40
2019-02-22T00:20:30.325Z,52.80
2019-02-22T00:21:09.305Z,47.20
2019-02-22T00:22:09.310Z,48.90
2019-02-22T00:23:09.363Z,48.20
2019-02-22T00:24:30.304Z,50.40
2019-02-22T00:25:30.284Z,48.40
2019-02-22T00:26:10.964Z,49.50
2019-02-22T00:27:09.262Z,52.40
2019-02-22T00:28:09.277Z,53.80
2019-02-22T00:29:30.281Z,50.10
2019-02-22T00:30:30.264Z,51.40
2019-02-22T00:31:09.299Z,49.60
2019-02-22T00:32:10.244Z,50.20
2019-02-22T00:33:09.244Z,55.60
2019-02-22T00:34:30.251Z,50.30
2019-02-22T00:35:30.331Z,51.60
2019-02-22T00:36:09.239Z,54.40
2019-02-22T00:37:09.284Z,45.90
2019-02-22T00:38:09.231Z,49.30
2019-02-22T00:39:30.225Z,52.20
2019-02-22T00:40:30.219Z,48.80
2019-02-22T00:41:12.257Z,50.20
2019-02-22T00:42:09.199Z,50.10
2019-02-22T00:43:09.197Z,53.10
2019-02-22T00:44:30.205Z,47.30
2019-02-22T00:45:30.191Z,47.20
2019-02-22T00:46:09.180Z,47.60
2019-02-22T00:47:09.193Z,52.00
2019-02-22T00:48:09.182Z,49.00
2019-02-22T00:49:30.182Z,47.30
2019-02-22T00:50:30.178Z,48.00
2019-02-22T00:51:09.161Z,50.40
2019-02-22T00:52:09.158Z,47.50
2019-02-22T00:53:11.460Z,48.60
2019-02-22T00:54:30.153Z,47.10
2019-02-22T00:55:30.148Z,48.60
2019-02-22T00:56:09.136Z,48.50
2019-02-22T00:57:09.168Z,47.60
2019-02-22T00:58:09.129Z,45.70
2019-02-22T00:59:30.132Z,47.50
2019-02-22T01:00:32.083Z,48.60
2019-02-22T01:01:09.107Z,49.60
2019-02-22T01:02:09.116Z,51.80
2019-02-22T01:03:09.097Z,53.30
2019-02-22T01:04:30.104Z,53.80
2019-02-22T01:05:30.099Z,45.90
2019-02-22T01:06:09.091Z,49.30
2019-02-22T01:07:09.081Z,56.90
2019-02-22T01:08:09.075Z,52.60
2019-02-22T01:09:30.049Z,52.60
2019-02-22T01:10:31.510Z,50.80
2019-02-22T01:11:09.058Z,50.20
2019-02-22T01:12:09.053Z,48.40
2019-02-22T01:13:09.057Z,51.20
2019-02-22T01:14:30.060Z,51.50
2019-02-22T01:15:30.041Z,53.10
2019-02-22T01:16:09.039Z,54.10
2019-02-22T01:17:09.036Z,53.00
2019-02-22T01:18:09.023Z,53.00
2019-02-22T01:19:30.032Z,52.40
2019-02-22T01:20:30.027Z,54.00
2019-02-22T01:21:09.019Z,55.00
2019-02-22T01:22:09.009Z,54.60
2019-02-22T01:23:09.001Z,55.40
2019-02-22T01:24:30.011Z,48.20
2019-02-22T01:25:30.013Z,53.90
2019-02-22T01:26:08.987Z,53.30
2019-02-22T01:27:08.975Z,54.90
2019-02-22T01:28:08.984Z,51.80
2019-02-22T01:29:29.987Z,51.60
2019-02-22T01:30:29.986Z,50.50
2019-02-22T01:31:08.960Z,55.80
2019-02-22T01:32:08.961Z,52.60
2019-02-22T01:33:09.390Z,55.90
2019-02-22T01:34:29.961Z,52.40
2019-02-22T01:35:29.971Z,51.80
2019-02-22T01:36:08.946Z,54.10
2019-02-22T01:37:08.938Z,54.50
2019-02-22T01:38:08.936Z,51.10
2019-02-22T01:39:29.945Z,54.50
2019-02-22T01:40:29.928Z,49.70
2019-02-22T01:41:08.914Z,54.90
2019-02-22T01:42:08.919Z,54.50
2019-02-22T01:43:08.900Z,53.30
2019-02-22T01:44:29.908Z,56.80
2019-02-22T01:45:29.903Z,54.80
2019-02-22T01:46:08.897Z,54.10
2019-02-22T01:47:08.903Z,57.50
2019-02-22T01:48:08.886Z,59.70
2019-02-22T01:49:29.893Z,54.70
2019-02-22T01:50:29.868Z,64.10
2019-02-22T01:51:08.875Z,61.50
2019-02-22T01:52:08.864Z,58.20
2019-02-22T01:53:08.857Z,58.60
2019-02-22T01:54:29.851Z,50.70
2019-02-22T01:55:29.852Z,54.70
2019-02-22T01:56:08.845Z,59.10
2019-02-22T01:57:08.842Z,57.00
2019-02-22T01:58:08.835Z,57.70
2019-02-22T01:59:29.865Z,56.60
2019-02-22T02:00:29.828Z,59.10
2019-02-22T02:01:08.802Z,57.10
2019-02-22T02:02:08.808Z,59.50
2019-02-22T02:03:08.791Z,58.50
2019-02-22T02:04:29.817Z,55.80
2019-02-22T02:05:29.801Z,57.30
2019-02-22T02:06:08.793Z,57.20
2019-02-22T02:07:08.809Z,61.50
2019-02-22T02:08:08.757Z,58.00
2019-02-22T02:09:29.781Z,57.20
2019-02-22T02:10:29.732Z,57.60
2019-02-22T02:11:08.759Z,58.80
2019-02-22T02:12:08.765Z,58.20
2019-02-22T02:13:08.759Z,61.60
2019-02-22T02:14:29.945Z,61.70
2019-02-22T02:15:29.759Z,57.60
2019-02-22T02:16:08.744Z,59.20
2019-02-22T02:17:08.732Z,60.10
2019-02-22T02:18:08.750Z,54.30
2019-02-22T02:19:29.766Z,57.90
2019-02-22T02:20:29.789Z,60.70
2019-02-22T02:21:08.717Z,54.00
2019-02-22T02:22:08.710Z,54.50
2019-02-22T02:23:08.698Z,58.00
2019-02-22T02:24:29.708Z,55.50
2019-02-22T02:25:29.722Z,51.10
2019-02-22T02:26:08.708Z,51.50
2019-02-22T02:27:08.681Z,59.40
2019-02-22T02:28:08.699Z,53.90
2019-02-22T02:29:29.679Z,57.20
2019-02-22T02:30:29.682Z,58.80
2019-02-22T02:31:08.669Z,57.00
2019-02-22T02:32:08.665Z,57.20
2019-02-22T02:33:08.655Z,60.20
2019-02-22T02:34:29.655Z,55.50
2019-02-22T02:35:29.641Z,58.50
2019-02-22T02:36:08.632Z,64.40
2019-02-22T02:37:08.638Z,58.00
2019-02-22T02:38:08.639Z,63.40
2019-02-22T02:39:29.643Z,60.40
2019-02-22T02:40:29.625Z,60.10
2019-02-22T02:41:11.240Z,56.40
2019-02-22T02:42:08.589Z,63.50
2019-02-22T02:43:08.599Z,64.70
2019-02-22T02:44:29.587Z,58.80
2019-02-22T02:45:30.302Z,65.60
2019-02-22T02:46:08.589Z,57.90
2019-02-22T02:47:08.590Z,56.00
2019-02-22T02:48:08.582Z,58.70
2019-02-22T02:49:29.581Z,66.90
2019-02-22T02:50:29.595Z,56.20
2019-02-22T02:51:08.569Z,54.80
2019-02-22T02:52:08.561Z,57.00
2019-02-22T02:53:08.553Z,54.60
2019-02-22T02:54:29.589Z,52.20
2019-02-22T02:55:29.548Z,60.70
2019-02-22T02:56:08.536Z,51.70
2019-02-22T02:57:08.504Z,51.50
2019-02-22T02:58:08.531Z,53.70
2019-02-22T02:59:29.531Z,49.60
2019-02-22T03:00:29.515Z,52.00
2019-02-22T03:01:08.567Z,52.40
2019-02-22T03:02:08.511Z,54.70
2019-02-22T03:03:08.505Z,50.50
2019-02-22T03:04:29.507Z,50.90
2019-02-22T03:05:29.553Z,51.70
2019-02-22T03:06:08.487Z,50.30
2019-02-22T03:07:08.472Z,57.30
2019-02-22T03:08:08.489Z,50.90
2019-02-22T03:09:29.477Z,50.90
2019-02-22T03:10:31.479Z,47.20
2019-02-22T03:11:19.749Z,51.20
2019-02-22T03:12:08.440Z,49.50
2019-02-22T03:13:08.443Z,49.70
2019-02-22T03:14:29.446Z,47.10
2019-02-22T03:15:29.441Z,48.10
2019-02-22T03:16:08.424Z,44.60
2019-02-22T03:17:08.420Z,50.30
2019-02-22T03:18:08.393Z,47.20
2019-02-22T03:19:29.421Z,47.00
2019-02-22T03:20:29.400Z,47.90
2019-02-22T03:21:08.409Z,45.40
2019-02-22T03:22:08.402Z,46.90
2019-02-22T03:23:08.395Z,45.40
2019-02-22T03:24:29.500Z,44.90
2019-02-22T03:25:29.392Z,45.80
2019-02-22T03:26:08.378Z,45.70
2019-02-22T03:27:08.378Z,48.50
2019-02-22T03:28:08.401Z,47.40
2019-02-22T03:29:29.384Z,47.40
2019-02-22T03:30:29.371Z,46.30
2019-02-22T03:31:08.495Z,45.90
2019-02-22T03:32:08.349Z,43.10
2019-02-22T03:33:08.354Z,46.00
2019-02-22T03:34:29.373Z,44.50
2019-02-22T03:35:29.400Z,47.10
2019-02-22T03:36:08.945Z,46.50
2019-02-22T03:37:08.337Z,50.80
2019-02-22T03:38:08.313Z,49.10
2019-02-22T03:39:29.299Z,44.60
2019-02-22T03:40:29.311Z,52.10
2019-02-22T03:41:08.311Z,49.80
2019-02-22T03:42:08.282Z,47.60
2019-02-22T03:43:08.294Z,51.20
2019-02-22T03:44:29.262Z,45.00
2019-02-22T03:45:29.262Z,46.30
2019-02-22T03:46:08.260Z,46.00
2019-02-22T03:47:08.254Z,45.80
2019-02-22T03:48:08.250Z,44.10
2019-02-22T03:49:29.258Z,50.30
2019-02-22T03:50:29.245Z,43.80
2019-02-22T03:51:08.256Z,48.70
2019-02-22T03:52:08.237Z,48.90
2019-02-22T03:53:08.230Z,45.00
2019-02-22T03:54:29.236Z,45.80
2019-02-22T03:55:29.225Z,42.90
2019-02-22T03:56:08.289Z,49.20
2019-02-22T03:57:08.203Z,46.00
2019-02-22T03:58:08.202Z,40.60
2019-02-22T03:59:29.209Z,42.70
2019-02-22T04:00:29.213Z,39.90
2019-02-22T04:01:08.190Z,39.40
2019-02-22T04:02:08.179Z,43.30
2019-02-22T04:03:08.169Z,39.60
2019-02-22T04:04:29.177Z,40.20
2019-02-22T04:05:29.246Z,42.70
2019-02-22T04:06:08.168Z,41.70
2019-02-22T04:07:09.164Z,41.40
2019-02-22T04:08:08.159Z,40.10
2019-02-22T04:09:29.138Z,39.70
2019-02-22T04:10:29.184Z,40.90
2019-02-22T04:11:08.127Z,38.20
2019-02-22T04:12:08.123Z,40.90
2019-02-22T04:13:08.128Z,39.90
2019-02-22T04:14:29.140Z,36.70
2019-02-22T04:15:29.160Z,38.00
2019-02-22T04:16:08.106Z,37.20
2019-02-22T04:17:08.105Z,36.70
2019-02-22T04:19:40.807Z,39.70
2019-02-22T04:20:40.794Z,39.10
2019-02-22T04:22:35.140Z,42.50
2019-02-22T04:23:35.131Z,38.60
2019-02-22T04:25:29.515Z,37.80
2019-02-22T04:26:29.488Z,37.00
2019-02-22T04:28:23.850Z,36.30
2019-02-22T04:29:23.858Z,34.50
2019-02-22T04:31:18.401Z,34.30
2019-02-22T04:32:18.203Z,32.90
2019-02-22T04:34:12.563Z,32.70
2019-02-22T04:35:12.552Z,35.60
2019-02-22T04:37:06.952Z,34.40
2019-02-22T04:38:06.916Z,33.20
2019-02-22T04:40:01.289Z,34.70
2019-02-22T04:41:01.279Z,32.00
2019-02-22T04:42:55.662Z,36.00
2019-02-22T04:43:55.625Z,34.40
2019-02-22T04:45:49.982Z,32.40
2019-02-22T04:46:49.993Z,32.60
2019-02-22T04:48:44.376Z,35.60
2019-02-22T04:49:44.335Z,33.10
2019-02-22T04:51:38.708Z,29.50
2019-02-22T04:52:38.698Z,31.40
2019-02-22T04:54:33.174Z,29.80
2019-02-22T04:55:33.061Z,26.20
2019-02-22T04:57:27.416Z,28.40
2019-02-22T04:58:27.406Z,26.90
2019-02-22T05:00:21.813Z,27.70
2019-02-22T05:01:21.764Z,26.40
2019-02-22T05:03:16.138Z,26.30
2019-02-22T05:04:16.129Z,27.10
2019-02-22T05:06:10.579Z,30.30
2019-02-22T05:07:10.487Z,29.60
2019-02-22T05:09:04.853Z,28.20
2019-02-22T05:10:04.845Z,27.30
2019-02-22T05:12:10.409Z,28.50
2019-02-22T05:12:59.207Z,29.80
2019-02-22T05:14:53.570Z,29.10
2019-02-22T05:15:53.560Z,30.50
2019-02-22T05:17:48.004Z,29.20
2019-02-22T05:18:47.921Z,30.10
2019-02-22T05:20:42.288Z,28.50
2019-02-22T05:21:42.281Z,31.70
2019-02-22T05:23:36.651Z,30.50
2019-02-22T05:24:36.642Z,30.10
2019-02-22T05:26:30.995Z,27.40
2019-02-22T05:27:30.988Z,30.20
2019-02-22T05:29:25.366Z,28.50
2019-02-22T05:30:25.340Z,31.80
2019-02-22T05:32:19.712Z,27.70
2019-02-22T05:33:19.711Z,31.40
2019-02-22T05:35:14.094Z,31.30
2019-02-22T05:36:14.052Z,28.70
2019-02-22T05:38:08.420Z,28.40
2019-02-22T05:39:18.435Z,29.50
2019-02-22T05:41:02.807Z,26.40
2019-02-22T05:42:02.776Z,29.10
2019-02-22T05:43:57.146Z,30.30
2019-02-22T05:44:57.128Z,29.80
2019-02-22T05:46:59.848Z,28.20
2019-02-22T05:47:51.489Z,28.80
2019-02-22T05:49:45.862Z,29.80
2019-02-22T05:50:45.848Z,30.30
2019-02-22T05:52:40.226Z,29.40
2019-02-22T05:53:40.212Z,30.00
2019-02-22T05:55:34.586Z,34.60
2019-02-22T05:56:34.582Z,33.50
2019-02-22T05:58:28.941Z,30.70
2019-02-22T05:59:28.935Z,30.30
2019-02-22T06:01:23.295Z,32.50
2019-02-22T06:02:23.288Z,31.90
2019-02-22T06:04:17.680Z,30.10
2019-02-22T06:05:17.648Z,33.00
2019-02-22T06:07:14.479Z,33.90
2019-02-22T06:08:12.004Z,32.60
2019-02-22T06:10:06.407Z,32.00
2019-02-22T06:11:06.369Z,32.90
2019-02-22T06:13:00.733Z,31.30
2019-02-22T06:14:00.733Z,30.90
2019-02-22T06:15:55.112Z,30.70
2019-02-22T06:16:55.086Z,32.90
2019-02-22T06:18:49.475Z,32.30
2019-02-22T06:19:49.442Z,33.50
2019-02-22T06:21:43.829Z,31.40
2019-02-22T06:22:43.805Z,33.70
2019-02-22T06:24:38.167Z,26.20
2019-02-22T06:25:38.157Z,26.30
2019-02-22T06:27:32.549Z,26.20
2019-02-22T06:28:32.524Z,29.30
2019-02-22T06:30:26.879Z,26.10
2019-02-22T06:31:26.866Z,28.40
2019-02-22T06:33:21.500Z,28.10
2019-02-22T06:34:21.228Z,26.00
2019-02-22T06:36:15.621Z,26.10
2019-02-22T06:37:15.587Z,27.70
2019-02-22T06:39:09.950Z,24.80
2019-02-22T06:40:09.934Z,26.40
2019-02-22T06:42:04.299Z,24.00
2019-02-22T06:43:04.289Z,24.70
2019-02-22T06:44:58.658Z,25.30
2019-02-22T06:45:58.697Z,28.90
2019-02-22T06:47:53.025Z,26.00
2019-02-22T06:48:53.007Z,25.50
2019-02-22T06:50:50.575Z,24.30
2019-02-22T06:51:50.663Z,24.30
2019-02-22T06:53:44.922Z,26.00
2019-02-22T06:54:44.915Z,26.70
2019-02-22T06:56:39.299Z,28.70
2019-02-22T06:57:39.278Z,26.90
2019-02-22T06:59:33.783Z,23.70
2019-02-22T07:00:33.630Z,24.20
2019-02-22T07:02:28.032Z,26.50
2019-02-22T07:03:27.990Z,24.50
2019-02-22T07:05:22.356Z,23.20
2019-02-22T07:06:22.348Z,23.50
2019-02-22T07:08:16.822Z,21.60
2019-02-22T07:09:16.728Z,21.00
2019-02-22T07:11:11.099Z,18.30
2019-02-22T07:12:11.100Z,20.40
2019-02-22T07:14:05.470Z,17.90
2019-02-22T07:15:05.448Z,19.70
2019-02-22T07:16:59.815Z,23.10
2019-02-22T07:17:59.810Z,20.10
2019-02-22T07:19:54.173Z,20.10
2019-02-22T07:20:54.164Z,21.90
2019-02-22T07:22:48.523Z,22.50
2019-02-22T07:23:48.511Z,21.20
2019-02-22T07:25:42.965Z,21.10
2019-02-22T07:26:42.870Z,23.60
2019-02-22T07:28:37.238Z,19.60
2019-02-22T07:29:37.234Z,21.80
2019-02-22T07:31:31.699Z,19.20
2019-02-22T07:32:31.582Z,21.10
2019-02-22T07:34:26.135Z,20.20
2019-02-22T07:35:26.073Z,19.00
2019-02-22T07:37:20.581Z,23.50
2019-02-22T07:38:20.531Z,24.10
2019-02-22T07:40:14.904Z,21.50
2019-02-22T07:41:14.958Z,21.90
2019-02-22T07:43:09.340Z,18.90
2019-02-22T07:44:09.270Z,20.60
2019-02-22T07:46:03.643Z,20.00
2019-02-22T07:47:03.625Z,23.00
2019-02-22T07:48:58.020Z,21.80
2019-02-22T07:49:57.978Z,20.20
2019-02-22T07:51:52.345Z,17.60
2019-02-22T07:52:52.336Z,21.10
2019-02-22T07:54:46.750Z,22.40
2019-02-22T07:55:46.694Z,19.90
2019-02-22T07:57:41.083Z,23.90
2019-02-22T07:58:41.072Z,24.20
2019-02-22T08:00:35.475Z,23.30
2019-02-22T08:01:46.601Z,26.00
2019-02-22T08:03:29.819Z,25.20
2019-02-22T08:04:29.785Z,24.00
2019-02-22T08:06:24.258Z,20.40
2019-02-22T08:07:24.149Z,20.70
2019-02-22T08:09:18.541Z,23.50
2019-02-22T08:10:18.499Z,21.20
2019-02-22T08:12:12.874Z,22.30
2019-02-22T08:13:19.739Z,20.30
2019-02-22T08:15:07.245Z,24.00
2019-02-22T08:16:07.216Z,22.60
2019-02-22T08:18:01.618Z,24.00
2019-02-22T08:19:02.102Z,22.90
2019-02-22T08:20:56.053Z,26.20
2019-02-22T08:21:56.018Z,26.40
2019-02-22T08:23:50.388Z,23.50
2019-02-22T08:24:50.409Z,25.90
2019-02-22T08:26:44.920Z,24.10
2019-02-22T08:27:52.958Z,22.10
2019-02-22T08:29:39.388Z,22.50
2019-02-22T08:30:39.248Z,23.90
2019-02-22T08:32:33.674Z,25.40
2019-02-22T08:33:33.633Z,25.20
2019-02-22T08:35:27.995Z,24.50
2019-02-22T08:36:27.987Z,20.70
2019-02-22T08:38:22.378Z,22.50
2019-02-22T08:39:22.336Z,19.60
2019-02-22T08:41:15.696Z,25.30
2019-02-22T08:42:15.691Z,26.50
2019-02-22T08:44:10.548Z,23.80
2019-02-22T08:45:10.050Z,23.60
2019-02-22T08:47:04.401Z,23.50
2019-02-22T08:48:04.393Z,18.70
2019-02-22T08:49:58.818Z,20.20
2019-02-22T08:50:58.766Z,22.20
2019-02-22T08:52:53.148Z,24.40
2019-02-22T08:53:53.132Z,21.10
2019-02-22T08:55:47.522Z,21.70
2019-02-22T08:56:47.483Z,22.10
2019-02-22T08:58:41.848Z,22.30
2019-02-22T08:59:41.843Z,19.90
2019-02-22T09:01:36.240Z,19.60
2019-02-22T09:02:36.200Z,19.90
2019-02-22T09:04:30.578Z,18.90
2019-02-22T09:05:30.636Z,17.30
2019-02-22T09:07:24.957Z,27.10
2019-02-22T09:08:24.918Z,27.20
2019-02-22T09:10:19.298Z,20.30
2019-02-22T09:11:19.277Z,22.20
2019-02-22T09:13:13.749Z,22.70
2019-02-22T09:14:13.663Z,27.70
2019-02-22T09:16:08.020Z,32.40
2019-02-22T09:17:07.998Z,23.10
2019-02-22T09:19:02.370Z,24.10
2019-02-22T09:20:02.361Z,26.70
2019-02-22T09:21:56.727Z,31.40
2019-02-22T09:22:56.713Z,19.60
2019-02-22T09:24:51.099Z,21.10
2019-02-22T09:25:51.089Z,18.90
2019-02-22T09:27:45.437Z,19.40
2019-02-22T09:28:45.432Z,19.60
2019-02-22T09:30:39.816Z,17.60
2019-02-22T09:31:39.785Z,20.30
2019-02-22T09:33:34.157Z,15.30
2019-02-22T09:34:34.144Z,16.40
2019-02-22T09:36:28.532Z,14.90
2019-02-22T09:37:28.503Z,17.30
2019-02-22T09:39:22.872Z,15.90
2019-02-22T09:40:22.865Z,13.10
2019-02-22T09:42:17.278Z,15.70
2019-02-22T09:43:17.233Z,15.10
2019-02-22T09:45:11.591Z,12.90
2019-02-22T09:46:11.582Z,10.80
2019-02-22T09:48:06.239Z,10.00
2019-02-22T09:49:05.941Z,8.60
2019-02-22T09:51:00.309Z,8.20
2019-02-22T09:52:00.298Z,6.30
2019-02-22T09:53:54.670Z,12.90
2019-02-22T09:54:54.668Z,11.80
2019-02-22T09:56:50.864Z,7.00
2019-02-22T09:57:49.015Z,6.90
2019-02-22T09:59:43.372Z,6.20
2019-02-22T10:00:43.413Z,9.90
2019-02-22T10:02:37.738Z,9.10
2019-02-22T10:03:37.721Z,6.70
2019-02-22T10:05:32.129Z,7.20
2019-02-22T10:06:32.077Z,7.10
2019-02-22T10:08:26.441Z,9.60
2019-02-22T10:09:26.433Z,14.70
2019-02-22T10:11:20.831Z,18.70
2019-02-22T10:12:20.788Z,11.20
2019-02-22T10:14:15.178Z,7.20
2019-02-22T10:15:15.183Z,8.90
2019-02-22T10:17:09.542Z,6.10
2019-02-22T10:18:09.500Z,6.30
2019-02-22T10:20:03.869Z,9.10
2019-02-22T10:21:03.864Z,7.50
2019-02-22T10:22:58.255Z,6.90
2019-02-22T10:23:58.213Z,8.10
2019-02-22T10:25:51.666Z,8.10
2019-02-22T10:26:51.650Z,8.10
2019-02-22T10:28:46.132Z,8.80
2019-02-22T10:29:46.014Z,6.40
2019-02-22T10:31:40.380Z,7.20
2019-02-22T10:32:40.370Z,7.30
2019-02-22T10:34:34.808Z,9.60
2019-02-22T10:35:34.733Z,8.70
2019-02-22T10:37:29.267Z,8.30
2019-02-22T10:38:29.251Z,9.40
2019-02-22T10:40:23.620Z,10.30
2019-02-22T10:41:23.610Z,13.10
2019-02-22T10:43:17.978Z,20.10
2019-02-22T10:44:18.106Z,24.30
2019-02-22T10:46:12.438Z,30.30
2019-02-22T10:47:12.324Z,31.50
2019-02-22T10:49:06.691Z,34.00
2019-02-22T10:50:06.678Z,39.20
2019-02-22T10:52:01.124Z,43.90
2019-02-22T10:53:02.370Z,34.30
2019-02-22T10:54:55.399Z,42.30
2019-02-22T10:55:55.379Z,40.90
2019-02-22T10:57:49.839Z,46.90
2019-02-22T10:58:49.783Z,43.40
2019-02-22T11:00:44.102Z,33.20
2019-02-22T11:01:44.093Z,34.30
2019-02-22T11:03:38.477Z,43.40
2019-02-22T11:04:38.497Z,40.90
2019-02-22T11:06:32.804Z,35.00
2019-02-22T11:07:32.798Z,34.70
2019-02-22T11:09:27.196Z,36.40
2019-02-22T11:10:27.149Z,36.10
2019-02-22T11:12:21.532Z,36.00
2019-02-22T11:13:21.576Z,37.10
2019-02-22T11:15:16.931Z,37.10
2019-02-22T11:16:16.903Z,33.60
2019-02-22T11:18:11.266Z,26.50
2019-02-22T11:19:11.265Z,24.70
2019-02-22T11:21:09.858Z,23.80
2019-02-22T11:22:09.815Z,19.60
2019-02-22T11:23:09.828Z,19.90
2019-02-22T11:24:09.799Z,18.50
2019-02-22T11:25:09.792Z,15.30
2019-02-22T11:26:09.879Z,16.90
2019-02-22T11:27:09.779Z,14.50
2019-02-22T11:28:09.770Z,14.80
2019-02-22T11:29:09.759Z,16.30
2019-02-22T11:30:09.759Z,16.00
2019-02-22T11:31:09.749Z,16.10
2019-02-22T11:32:09.743Z,14.60
2019-02-22T11:33:09.731Z,15.50
2019-02-22T11:34:09.720Z,15.30
2019-02-22T11:35:09.719Z,13.20
2019-02-22T11:36:09.704Z,12.90
2019-02-22T11:37:09.698Z,14.00
2019-02-22T11:38:09.692Z,14.30
2019-02-22T11:39:09.681Z,16.50
2019-02-22T11:40:09.673Z,15.10
2019-02-22T11:41:09.664Z,14.40
2019-02-22T11:42:09.731Z,14.30
2019-02-22T11:43:09.650Z,15.50
2019-02-22T11:44:09.663Z,16.50
2019-02-22T11:45:09.635Z,18.60
2019-02-22T11:46:09.635Z,16.90
2019-02-22T11:47:09.611Z,16.70
2019-02-22T11:48:09.688Z,16.40
2019-02-22T11:49:09.596Z,17.50
2019-02-22T11:50:09.587Z,17.90
2019-02-22T11:51:09.580Z,22.90
2019-02-22T11:52:09.571Z,19.80
2019-02-22T11:53:09.567Z,19.80
2019-02-22T11:54:09.555Z,23.70
2019-02-22T11:55:09.704Z,19.80
2019-02-22T11:56:09.545Z,22.30
2019-02-22T11:57:09.610Z,26.80
2019-02-22T11:58:09.656Z,26.40
2019-02-22T11:59:09.567Z,25.00
2019-02-22T12:00:09.505Z,27.20
2019-02-22T12:01:09.565Z,24.50
2019-02-22T12:02:09.485Z,30.00
2019-02-22T12:03:23.599Z,30.00
2019-02-22T12:04:09.472Z,27.80
2019-02-22T12:05:09.460Z,26.90
2019-02-22T12:06:09.450Z,23.90
2019-02-22T12:07:09.440Z,26.60
2019-02-22T12:08:09.435Z,25.00
2019-02-22T12:09:09.425Z,27.00
2019-02-22T12:10:09.416Z,25.10
2019-02-22T12:11:09.414Z,26.10
2019-02-22T12:12:09.400Z,21.40
2019-02-22T12:13:10.191Z,20.40
2019-02-22T12:14:09.432Z,23.60
2019-02-22T12:15:09.372Z,22.40
2019-02-22T12:16:09.370Z,22.70
2019-02-22T12:17:09.354Z,21.10
2019-02-22T12:18:09.354Z,20.20
2019-02-22T12:19:09.338Z,20.50
2019-02-22T12:20:09.345Z,20.80
2019-02-22T12:21:09.352Z,20.90
2019-02-22T12:22:09.309Z,19.30
2019-02-22T12:23:09.303Z,19.30
2019-02-22T12:24:09.293Z,18.90
2019-02-22T12:25:09.284Z,19.30
2019-02-22T12:26:09.277Z,18.60
2019-02-22T12:27:09.270Z,16.80
2019-02-22T12:28:09.280Z,15.30
2019-02-22T12:29:09.318Z,19.60
2019-02-22T12:30:09.241Z,16.40
2019-02-22T12:31:09.252Z,14.80
2019-02-22T12:32:09.221Z,16.20
2019-02-22T12:33:09.214Z,18.60
2019-02-22T12:34:09.235Z,17.80
2019-02-22T12:35:09.196Z,18.40
2019-02-22T12:36:09.707Z,16.80
2019-02-22T12:37:09.180Z,20.50
2019-02-22T12:38:09.174Z,15.70
2019-02-22T12:39:09.165Z,18.60
2019-02-22T12:40:09.154Z,17.50
2019-02-22T12:41:09.145Z,16.70
2019-02-22T12:42:09.138Z,16.50
2019-02-22T12:43:09.131Z,19.10
2019-02-22T12:44:09.130Z,17.10
2019-02-22T12:45:09.114Z,16.40
2019-02-22T12:46:09.115Z,15.70
2019-02-22T12:47:10.174Z,17.80
2019-02-22T12:48:09.113Z,17.10
2019-02-22T12:49:09.081Z,16.20
2019-02-22T12:50:09.074Z,18.90
2019-02-22T12:51:09.071Z,17.50
2019-02-22T12:52:09.055Z,17.20
2019-02-22T12:53:09.049Z,15.10
2019-02-22T12:54:09.039Z,16.00
2019-02-22T12:55:09.030Z,16.10
2019-02-22T12:56:09.022Z,19.90
2019-02-22T12:57:09.012Z,15.90
2019-02-22T12:58:09.006Z,15.50
2019-02-22T12:59:08.996Z,15.90
2019-02-22T13:00:08.997Z,15.20
2019-02-22T13:01:08.980Z,15.30
2019-02-22T13:02:08.971Z,13.30
2019-02-22T13:03:08.976Z,14.20
2019-02-22T13:04:08.972Z,15.90
2019-02-22T13:05:08.948Z,18.70
2019-02-22T13:06:08.942Z,17.90
2019-02-22T13:07:08.929Z,19.80
2019-02-22T13:08:08.925Z,19.10
2019-02-22T13:09:08.917Z,19.10
2019-02-22T13:10:08.910Z,19.90
2019-02-22T13:11:08.913Z,18.60
2019-02-22T13:12:14.035Z,15.30
2019-02-22T13:13:08.881Z,14.20
2019-02-22T13:14:09.055Z,17.10
2019-02-22T13:15:14.238Z,17.00
2019-02-22T13:16:08.857Z,16.60
2019-02-22T13:17:08.845Z,13.00
2019-02-22T13:18:08.843Z,14.00
2019-02-22T13:19:08.831Z,16.00
2019-02-22T13:20:08.823Z,12.80
2019-02-22T13:21:08.819Z,14.90
2019-02-22T13:22:08.803Z,14.20
2019-02-22T13:23:08.797Z,15.60
2019-02-22T13:24:08.789Z,16.10
2019-02-22T13:25:08.780Z,14.70
2019-02-22T13:26:08.772Z,17.30
2019-02-22T13:27:08.767Z,22.30
2019-02-22T13:28:08.754Z,21.20
2019-02-22T13:29:08.743Z,17.80
2019-02-22T13:30:08.738Z,18.70
2019-02-22T13:31:08.741Z,15.20
2019-02-22T13:32:08.720Z,16.30
2019-02-22T13:33:08.711Z,15.40
2019-02-22T13:34:08.702Z,17.50
2019-02-22T13:35:10.885Z,16.40
2019-02-22T13:36:08.689Z,17.60
2019-02-22T13:37:08.679Z,21.80
2019-02-22T13:38:08.707Z,16.40
2019-02-22T13:39:08.661Z,19.70
2019-02-22T13:40:08.653Z,18.20
2019-02-22T13:41:08.642Z,15.00
2019-02-22T13:42:08.635Z,14.60
2019-02-22T13:43:08.624Z,13.60
2019-02-22T13:44:08.618Z,13.20
2019-02-22T13:45:09.482Z,13.10
2019-02-22T13:46:08.599Z,12.60
2019-02-22T13:47:08.596Z,9.60
2019-02-22T13:48:08.588Z,11.00
2019-02-22T13:49:08.575Z,11.90
2019-02-22T13:50:08.565Z,10.50
2019-02-22T13:51:08.582Z,12.30
2019-02-22T13:52:08.546Z,11.00
2019-02-22T13:53:08.536Z,10.70
2019-02-22T13:54:08.528Z,12.70
2019-02-22T13:55:08.519Z,12.60
2019-02-22T13:56:08.510Z,12.00
2019-02-22T13:57:08.499Z,14.60
2019-02-22T13:58:08.491Z,11.20
2019-02-22T13:59:08.775Z,8.80
2019-02-22T14:00:08.474Z,10.50
2019-02-22T14:01:08.463Z,11.10
2019-02-22T14:02:08.456Z,10.20
2019-02-22T14:03:08.447Z,11.60
2019-02-22T14:04:08.434Z,12.80
2019-02-22T14:05:08.431Z,10.70
2019-02-22T14:06:08.418Z,12.30
2019-02-22T14:07:08.407Z,11.40
2019-02-22T14:08:08.403Z,10.70
2019-02-22T14:09:08.391Z,14.00
2019-02-22T14:10:08.385Z,11.50
2019-02-22T14:11:08.372Z,11.80
2019-02-22T14:12:08.364Z,11.00
2019-02-22T14:13:08.353Z,9.30
2019-02-22T14:14:08.345Z,10.30
2019-02-22T14:15:08.341Z,9.70
2019-02-22T14:16:08.349Z,13.20
2019-02-22T14:17:08.319Z,11.10
2019-02-22T14:18:08.307Z,10.50
2019-02-22T14:19:08.303Z,13.60
2019-02-22T14:20:08.289Z,9.40
2019-02-22T14:21:08.281Z,9.40
2019-02-22T14:22:08.271Z,7.80
2019-02-22T14:23:08.261Z,8.80
2019-02-22T14:24:08.316Z,9.50
2019-02-22T14:25:08.241Z,8.00
2019-02-22T14:26:08.270Z,8.60
2019-02-22T14:27:08.223Z,9.00
2019-02-22T14:28:08.217Z,8.30
2019-02-22T14:29:08.205Z,11.00
2019-02-22T14:30:08.195Z,8.80
2019-02-22T14:31:08.186Z,9.10
2019-02-22T14:32:08.181Z,10.20
2019-02-22T14:33:08.166Z,9.50
2019-02-22T14:34:08.160Z,10.90
2019-02-22T14:35:08.172Z,10.70
2019-02-22T14:36:08.158Z,8.80
2019-02-22T14:37:08.153Z,10.20
2019-02-22T14:38:08.124Z,8.60
2019-02-22T14:39:08.186Z,9.40
2019-02-22T14:40:08.103Z,14.50
2019-02-22T14:41:08.093Z,11.60
2019-02-22T14:42:08.083Z,10.00
2019-02-22T14:43:16.211Z,8.80
2019-02-22T14:44:08.072Z,10.20
2019-02-22T14:45:08.058Z,9.90
2019-02-22T14:46:08.441Z,9.40
2019-02-22T14:47:08.042Z,9.50
2019-02-22T14:48:08.036Z,10.80
2019-02-22T14:49:08.021Z,9.60
2019-02-22T14:50:08.024Z,11.40
2019-02-22T14:51:08.002Z,10.50
2019-02-22T14:52:07.993Z,10.80
2019-02-22T14:53:18.871Z,10.90
2019-02-22T14:54:07.979Z,10.10
2019-02-22T14:55:07.965Z,8.20
2019-02-22T14:56:07.955Z,10.00
2019-02-22T14:57:07.953Z,10.20
2019-02-22T14:58:07.938Z,10.00
2019-02-22T14:59:07.935Z,13.40
2019-02-22T15:00:08.147Z,11.00
2019-02-22T15:01:07.915Z,10.90
2019-02-22T15:02:07.904Z,12.30
2019-02-22T15:03:07.927Z,9.70
2019-02-22T15:04:07.888Z,10.00
2019-02-22T15:05:09.106Z,10.50
2019-02-22T15:06:07.864Z,9.50
2019-02-22T15:07:07.859Z,13.10